Terminal Aerodrome Forecast
Issued by NWS Buffalo, NY

Home | Current Version | Previous Version | Text Only | Print | Product List | Glossary On
Versions: 1 2 3 4 5 6 7 8 9 10 11 12 13 14 15 16 17 18 19 20 21 22 23 24 25 26 27
000
FTUS41 KBUF 310500
TAFROC
TAF
KROC 310520Z 3106/0106 31011KT P6SM BKN030
     FM310800 30008KT P6SM VCSH BKN025
     FM310900 30007KT P6SM VCSH BKN020
     FM311400 28004KT P6SM BKN200
     FM311800 27008KT P6SM BKN140
     FM312000 26009KT P6SM BKN060
     FM010100 24008KT P6SM BKN140
     FM010400 26010KT P6SM BKN040=

USA.gov is the U.S. government's official web portal to all federal, state and local government web resources and services.